Time;durP1;ratioP1;P1;durP2;ratioP2;P2;SDS_P1;SDS_P2;PMS_P1;PMS_P2;Temp;Humidity;BMP_temperature;BMP_pressure;BME280_temperature;BME280_humidity;BME280_pressure;Samples;Min_cycle;Max_cycle;Signal;HPM_P1;HPM_P2
2022/07/03 00:01:51;;;;;;;8.57;7.87;;;;;;;25.72;56.01;99810.97;5050617;28;20203;-57
2022/07/03 00:04:20;;;;;;;8.90;8.07;;;;;;;25.72;55.94;99816.25;5050663;28;20200;-57
2022/07/03 00:06:47;;;;;;;10.98;8.23;;;;;;;25.76;55.87;99807.31;5050403;28;20454;-57
2022/07/03 00:09:15;;;;;;;8.25;7.55;;;;;;;25.75;55.80;99802.97;5050439;28;20189;-57
2022/07/03 00:11:44;;;;;;;8.77;7.80;;;;;;;25.79;56.11;99806.34;5050764;28;20242;-57
2022/07/03 00:14:10;;;;;;;8.57;7.68;;;;;;;25.82;55.88;99805.34;5050555;28;20220;-57
2022/07/03 00:16:37;;;;;;;9.97;7.50;;;;;;;25.84;55.45;99804.38;5050455;28;20204;-57
2022/07/03 00:19:04;;;;;;;9.13;7.30;;;;;;;25.85;55.68;99807.84;5050474;28;20196;-57
2022/07/03 00:21:36;;;;;;;7.73;7.13;;;;;;;25.79;55.92;99801.91;5050352;28;20199;-57
2022/07/03 00:24:05;;;;;;;9.15;8.30;;;;;;;25.75;56.13;99802.09;5050798;28;20192;-57
2022/07/03 00:26:36;;;;;;;9.30;8.37;;;;;;;25.76;56.19;99791.53;5050535;28;20204;-57
2022/07/03 00:29:06;;;;;;;8.90;7.97;;;;;;;25.76;55.87;99788.03;5049813;28;20193;-57
2022/07/03 00:31:34;;;;;;;8.68;7.78;;;;;;;25.74;56.12;99790.69;5050355;28;20192;-57
2022/07/03 00:34:02;;;;;;;8.52;7.78;;;;;;;25.73;55.89;99782.88;5050018;28;20266;-57
2022/07/03 00:36:34;;;;;;;8.73;7.93;;;;;;;25.73;56.07;99780.25;5050228;28;20204;-57
2022/07/03 00:39:01;;;;;;;10.70;7.67;;;;;;;25.71;55.80;99772.41;5050040;28;20192;-57
2022/07/03 00:41:30;;;;;;;9.30;8.20;;;;;;;25.74;56.05;99774.03;5049450;28;20440;-57
2022/07/03 00:43:57;;;;;;;8.90;8.10;;;;;;;25.75;55.87;99776.63;5050154;28;20196;-57
2022/07/03 00:46:28;;;;;;;9.13;8.23;;;;;;;25.72;55.92;99775.91;5049877;28;20711;-57
2022/07/03 00:48:55;;;;;;;10.85;8.00;;;;;;;25.67;56.13;99768.19;5050246;28;20192;-57
2022/07/03 00:51:25;;;;;;;10.77;8.27;;;;;;;25.50;56.39;99744.34;5050466;28;20195;-57
2022/07/03 00:53:55;;;;;;;8.43;7.72;;;;;;;25.57;56.90;99771.25;5049934;28;20227;-57
2022/07/03 00:56:26;;;;;;;10.93;8.93;;;;;;;25.61;56.84;99763.16;5049265;28;20442;-57
2022/07/03 00:58:55;;;;;;;8.97;8.17;;;;;;;25.67;56.63;99762.06;5049951;28;20683;-57
2022/07/03 01:01:25;;;;;;;13.07;7.77;;;;;;;25.61;57.29;99764.94;5050131;28;20188;-57
2022/07/03 01:04:04;;;;;;;9.40;8.33;;;;;;;25.50;57.87;99759.25;5049841;28;20188;-57
2022/07/03 01:06:35;;;;;;;9.80;8.87;;;;;;;25.45;58.68;99758.56;5049742;28;20666;-57
2022/07/03 01:09:06;;;;;;;8.85;7.90;;;;;;;25.37;59.77;99756.25;5049878;28;20192;-57
2022/07/03 01:11:38;;;;;;;9.53;7.87;;;;;;;25.31;60.79;99763.50;5049755;28;20202;-56
2022/07/03 01:14:18;;;;;;;10.10;8.52;;;;;;;25.23;61.24;99755.91;5049461;28;20448;-57
2022/07/03 01:16:56;;;;;;;10.60;8.27;;;;;;;25.21;61.84;99750.75;5049964;28;20199;-56
2022/07/03 01:19:38;;;;;;;14.03;8.53;;;;;;;25.16;62.44;99750.03;5050132;28;20461;-57
2022/07/03 01:22:33;;;;;;;10.30;9.00;;;;;;;25.08;63.37;99748.63;5049643;28;20279;-57
2022/07/03 01:25:17;;;;;;;10.50;9.60;;;;;;;24.77;64.52;99719.13;5049649;28;20587;-57
2022/07/03 01:27:59;;;;;;;12.23;9.80;;;;;;;24.94;65.05;99748.31;5049792;28;20188;-57
2022/07/03 01:30:28;;;;;;;11.57;10.38;;;;;;;24.90;65.47;99757.22;5048365;28;20493;-57
2022/07/03 01:32:59;;;;;;;11.47;10.37;;;;;;;24.89;65.74;99761.59;5049645;28;20223;-57
2022/07/03 01:35:34;;;;;;;11.17;10.03;;;;;;;24.87;66.30;99754.69;5049670;28;20274;-57
2022/07/03 01:38:07;;;;;;;10.95;9.93;;;;;;;24.81;66.28;99752.28;5049456;28;20257;-57
2022/07/03 01:40:36;;;;;;;15.37;11.10;;;;;;;24.67;67.11;99744.06;5049534;28;20587;-57
2022/07/03 01:43:05;;;;;;;10.87;9.77;;;;;;;24.63;67.23;99744.16;5053204;28;20675;-57
2022/07/03 01:45:36;;;;;;;11.80;10.67;;;;;;;24.57;68.02;99754.91;5053280;28;20236;-57
2022/07/03 01:48:03;;;;;;;11.35;10.25;;;;;;;24.55;68.21;99750.63;5052561;28;20550;-57
2022/07/03 01:50:32;;;;;;;11.77;9.67;;;;;;;24.55;68.25;99761.13;5053119;28;20197;-56
2022/07/03 01:53:02;;;;;;;10.87;9.80;;;;;;;24.42;68.58;99755.44;5053050;28;20215;-57
2022/07/03 01:55:33;;;;;;;13.70;9.50;;;;;;;24.33;69.36;99749.66;5053056;28;20736;-57
2022/07/03 01:58:00;;;;;;;10.43;9.53;;;;;;;24.25;69.64;99756.97;5052978;28;20238;-57
2022/07/03 02:00:29;;;;;;;10.33;9.40;;;;;;;24.26;70.22;99753.41;5052765;28;20658;-57
2022/07/03 02:02:59;;;;;;;11.68;10.63;;;;;;;24.24;70.08;99750.00;5052177;28;20427;-56
2022/07/03 02:05:37;;;;;;;10.80;9.73;;;;;;;24.20;70.71;99746.59;5052813;28;20189;-57
2022/07/03 02:08:12;;;;;;;10.70;9.70;;;;;;;24.16;70.97;99747.63;5052953;28;20280;-57
2022/07/03 02:10:45;;;;;;;14.23;9.57;;;;;;;24.08;71.02;99752.25;5052736;28;20206;-57
2022/07/03 02:13:16;;;;;;;11.37;10.27;;;;;;;24.03;71.43;99748.94;5052647;28;20219;-58
2022/07/03 02:15:46;;;;;;;11.50;10.33;;;;;;;24.05;71.38;99760.25;5052990;28;20207;-57
2022/07/03 02:18:27;;;;;;;10.50;9.60;;;;;;;23.99;71.35;99763.06;5052457;28;20686;-57
2022/07/03 02:21:03;;;;;;;11.00;9.95;;;;;;;23.88;71.53;99754.69;5052313;28;20535;-57
2022/07/03 02:23:32;;;;;;;11.40;9.97;;;;;;;23.77;72.10;99760.31;5052279;28;20194;-57
2022/07/03 02:26:04;;;;;;;11.33;10.10;;;;;;;23.72;72.97;99764.84;5052510;28;20200;-57
2022/07/03 02:28:41;;;;;;;10.10;9.10;;;;;;;23.67;73.26;99756.28;5052380;28;20278;-61
2022/07/03 02:31:15;;;;;;;13.47;10.57;;;;;;;23.61;73.32;99764.34;5052643;28;20231;-57
2022/07/03 02:33:44;;;;;;;12.07;10.90;;;;;;;23.51;74.24;99759.44;5052237;28;20216;-57
2022/07/03 02:36:12;;;;;;;10.85;9.85;;;;;;;23.53;74.44;99762.88;5051681;28;20568;-57
2022/07/03 02:38:44;;;;;;;12.03;10.90;;;;;;;23.50;74.50;99763.84;5052139;28;20199;-57
2022/07/03 02:41:18;;;;;;;12.40;11.30;;;;;;;23.38;74.23;99748.47;5052137;28;20353;-57
2022/07/03 02:43:55;;;;;;;13.70;11.17;;;;;;;23.44;74.38;99764.88;5052412;28;20206;-57
2022/07/03 02:46:50;;;;;;;11.97;10.87;;;;;;;23.40;74.54;99760.63;5052115;28;20227;-57
2022/07/03 02:49:31;;;;;;;12.70;10.33;;;;;;;23.34;75.19;99768.69;5051972;28;20200;-57
2022/07/03 02:52:09;;;;;;;11.47;10.47;;;;;;;23.37;74.79;99759.84;5051573;28;20196;-57
2022/07/03 02:54:44;;;;;;;12.88;11.68;;;;;;;23.40;74.93;99772.91;5051574;28;20447;-57
2022/07/03 02:57:10;;;;;;;12.80;11.50;;;;;;;23.39;74.72;99768.56;5052008;28;20206;-57
2022/07/03 02:59:49;;;;;;;11.93;10.80;;;;;;;23.40;74.87;99767.66;5051817;28;20200;-57
2022/07/03 03:02:24;;;;;;;11.17;10.13;;;;;;;23.36;74.72;99750.25;5052004;28;20273;-56
2022/07/03 03:04:59;;;;;;;11.47;10.30;;;;;;;23.49;74.19;99759.47;5052060;28;20196;-57
2022/07/03 03:07:34;;;;;;;12.13;10.93;;;;;;;23.62;73.68;99765.22;5051777;28;20215;-57
2022/07/03 03:10:01;;;;;;;13.73;12.38;;;;;;;23.79;72.66;99762.88;5050962;28;20446;-57
2022/07/03 03:12:31;;;;;;;13.27;10.93;;;;;;;24.06;71.82;99762.81;5051613;28;20196;-57
2022/07/03 03:15:02;;;;;;;12.47;11.27;;;;;;;24.26;70.21;99761.28;5051455;28;20220;-57
2022/07/03 03:17:41;;;;;;;12.57;11.17;;;;;;;24.34;69.75;99759.25;5051442;28;20188;-57
2022/07/03 03:20:12;;;;;;;11.67;10.57;;;;;;;24.23;69.34;99751.75;5051736;28;20196;-57
2022/07/03 03:22:58;;;;;;;11.40;10.10;;;;;;;24.25;68.93;99751.72;5051346;28;20303;-56
2022/07/03 03:25:25;;;;;;;11.70;10.70;;;;;;;24.23;68.44;99753.53;5051458;28;20192;-57
2022/07/03 03:27:53;;;;;;;12.55;11.25;;;;;;;24.16;68.82;99745.00;5051094;28;20432;-57
2022/07/03 03:30:20;;;;;;;12.50;11.23;;;;;;;24.31;68.97;99762.00;5051371;28;20211;-57
2022/07/03 03:32:48;;;;;;;12.57;11.47;;;;;;;24.29;68.84;99759.41;5051255;28;20689;-57
2022/07/03 03:35:16;;;;;;;12.97;11.30;;;;;;;24.32;69.39;99761.94;5051058;28;20220;-57
2022/07/03 03:37:45;;;;;;;12.53;11.33;;;;;;;24.37;69.32;99767.03;5051170;28;20192;-56
2022/07/03 03:40:13;;;;;;;12.17;10.97;;;;;;;24.34;69.42;99767.13;5050967;28;20199;-57
2022/07/03 03:42:40;;;;;;;13.83;12.60;;;;;;;24.23;69.96;99761.44;5050437;28;20471;-57
2022/07/03 03:45:07;;;;;;;13.73;11.33;;;;;;;24.31;69.54;99770.72;5050741;28;20228;-56
2022/07/03 03:47:35;;;;;;;12.07;10.50;;;;;;;24.24;70.20;99769.22;5050889;28;20254;-57
2022/07/03 03:50:04;;;;;;;12.43;11.10;;;;;;;24.14;70.65;99754.72;5050727;28;20196;-57
2022/07/03 03:52:30;;;;;;;11.73;10.57;;;;;;;24.22;69.95;99767.56;5050890;28;20670;-57
2022/07/03 03:54:57;;;;;;;11.83;10.73;;;;;;;24.23;70.32;99769.31;5050693;28;20220;-57
2022/07/03 03:57:26;;;;;;;11.83;10.20;;;;;;;24.24;70.05;99769.22;5050797;28;20192;-57
2022/07/03 03:59:53;;;;;;;11.80;10.70;;;;;;;24.22;70.72;99773.69;5050536;28;20275;-56
2022/07/03 04:02:20;;;;;;;12.77;11.55;;;;;;;24.14;70.83;99773.09;5049779;28;20922;-56
2022/07/03 04:04:47;;;;;;;11.80;10.80;;;;;;;24.11;70.99;99770.56;5049760;28;20184;-57
2022/07/03 04:07:15;;;;;;;11.40;10.30;;;;;;;24.21;70.63;99764.09;5050858;28;20192;-56
2022/07/03 04:09:42;;;;;;;10.93;9.83;;;;;;;24.17;70.42;99769.50;5050661;28;20203;-57
2022/07/03 04:12:10;;;;;;;11.37;10.27;;;;;;;24.16;70.91;99775.66;5050395;28;20207;-56
2022/07/03 04:14:36;;;;;;;11.97;10.00;;;;;;;24.09;70.40;99761.88;5050278;28;20220;-57
2022/07/03 04:17:04;;;;;;;10.43;9.40;;;;;;;24.12;69.54;99767.03;5050226;28;20650;-56
2022/07/03 04:19:31;;;;;;;12.60;10.53;;;;;;;24.11;70.21;99769.72;5050338;28;20655;-56
2022/07/03 04:21:58;;;;;;;13.67;9.90;;;;;;;24.22;70.13;99771.06;5050261;28;20199;-56
2022/07/03 04:24:26;;;;;;;11.33;10.07;;;;;;;24.26;69.41;99772.66;5050396;28;20192;-57
2022/07/03 04:26:53;;;;;;;10.77;9.87;;;;;;;24.32;69.90;99767.19;5050079;28;20203;-58
2022/07/03 04:29:20;;;;;;;12.03;10.83;;;;;;;24.38;69.51;99769.59;5050132;28;20203;-56
2022/07/03 04:31:47;;;;;;;11.73;10.27;;;;;;;24.47;68.63;99774.53;5050163;28;20203;-57
2022/07/03 04:34:13;;;;;;;10.80;9.83;;;;;;;24.49;68.42;99777.09;5050002;28;20729;-56
2022/07/03 04:36:40;;;;;;;11.03;9.97;;;;;;;24.55;68.95;99780.38;5049919;28;20200;-57
2022/07/03 04:39:07;;;;;;;10.50;9.53;;;;;;;24.46;68.94;99785.09;5049975;28;20192;-57
2022/07/03 04:41:35;;;;;;;11.97;10.10;;;;;;;24.46;68.79;99782.47;5049937;28;20258;-57
2022/07/03 04:44:02;;;;;;;12.10;10.37;;;;;;;24.46;68.77;99785.97;5050105;28;20218;-57
2022/07/03 04:46:29;;;;;;;10.90;9.87;;;;;;;24.49;68.99;99774.47;5049635;28;20707;-57
2022/07/03 04:48:56;;;;;;;12.37;10.60;;;;;;;24.48;69.35;99786.75;5050042;28;20199;-57
2022/07/03 04:51:23;;;;;;;11.67;10.17;;;;;;;24.45;69.31;99776.34;5049939;28;20200;-57
2022/07/03 04:53:50;;;;;;;11.40;10.20;;;;;;;24.63;68.60;99778.34;5049739;28;20311;-56
2022/07/03 04:56:17;;;;;;;11.30;10.33;;;;;;;24.71;68.84;99775.41;5049634;28;20215;-57
2022/07/03 04:58:45;;;;;;;11.33;10.30;;;;;;;24.63;68.67;99773.06;5049722;28;20196;-57
2022/07/03 05:01:12;;;;;;;11.83;9.97;;;;;;;24.77;68.45;99767.31;5049752;28;20196;-56
2022/07/03 05:03:39;;;;;;;12.77;10.77;;;;;;;24.79;68.38;99772.50;5049654;28;20192;-56
2022/07/03 05:06:06;;;;;;;11.30;10.27;;;;;;;24.90;67.72;99773.84;5049864;28;20203;-57
2022/07/03 05:08:33;;;;;;;10.73;9.73;;;;;;;25.05;67.97;99777.69;5049657;28;20188;-57
2022/07/03 05:11:00;;;;;;;13.53;10.33;;;;;;;25.17;67.23;99774.56;5049540;28;20575;-57
2022/07/03 05:13:27;;;;;;;10.27;9.37;;;;;;;25.30;66.06;99775.78;5049501;28;20730;-57
2022/07/03 05:15:55;;;;;;;10.17;9.37;;;;;;;25.43;65.52;99778.81;5051663;28;20552;-57
2022/07/03 05:18:22;;;;;;;10.80;9.83;;;;;;;25.51;65.06;99779.41;5053571;28;20206;-57
2022/07/03 05:20:49;;;;;;;10.20;8.70;;;;;;;25.57;65.09;99777.34;5053272;28;20195;-57
2022/07/03 05:23:16;;;;;;;10.40;9.33;;;;;;;25.68;64.99;99779.59;5053346;28;20638;-57
2022/07/03 05:25:43;;;;;;;10.50;8.97;;;;;;;25.78;64.15;99781.78;5053032;28;20195;-57
2022/07/03 05:28:09;;;;;;;13.63;10.83;;;;;;;25.70;64.46;99780.38;5053210;28;20600;-57
2022/07/03 05:30:36;;;;;;;11.10;9.97;;;;;;;25.76;64.14;99766.97;5053246;28;20195;-57
2022/07/03 05:33:05;;;;;;;10.33;9.13;;;;;;;25.81;63.74;99775.53;5053143;28;20690;-57
2022/07/03 05:35:31;;;;;;;10.70;9.90;;;;;;;25.90;63.31;99782.19;5053213;28;20227;-57
2022/07/03 05:37:58;;;;;;;10.20;9.30;;;;;;;25.97;62.12;99781.88;5053219;28;20199;-57
2022/07/03 05:40:25;;;;;;;10.10;9.03;;;;;;;26.10;61.36;99783.06;5053116;28;20204;-57
2022/07/03 05:42:53;;;;;;;10.73;9.65;;;;;;;26.06;60.65;99784.13;5052608;28;20802;-57
2022/07/03 05:45:20;;;;;;;18.00;10.15;;;;;;;26.03;60.73;99784.25;5053025;28;20224;-57
2022/07/03 05:47:47;;;;;;;10.25;9.35;;;;;;;26.12;60.10;99786.47;5053271;28;20532;-57
2022/07/03 05:50:15;;;;;;;10.60;9.07;;;;;;;26.18;60.73;99783.63;5052895;28;20673;-57
2022/07/03 05:52:42;;;;;;;10.20;9.37;;;;;;;26.26;59.68;99780.69;5052877;28;20200;-57
2022/07/03 05:55:09;;;;;;;11.35;9.88;;;;;;;26.20;59.41;99779.16;5052975;28;20227;-56
2022/07/03 05:57:37;;;;;;;10.45;9.48;;;;;;;26.25;59.25;99781.59;5051902;28;20443;-57
2022/07/03 06:00:06;;;;;;;10.13;9.10;;;;;;;26.41;58.71;99779.13;5053069;28;20587;-57
2022/07/03 06:02:33;;;;;;;10.75;9.65;;;;;;;26.46;58.90;99782.41;5052548;28;20686;-57
2022/07/03 06:05:00;;;;;;;13.70;10.38;;;;;;;26.60;58.95;99780.88;5052729;28;20184;-58
2022/07/03 06:07:28;;;;;;;11.33;10.40;;;;;;;26.67;58.46;99782.31;5052645;28;20192;-57
2022/07/03 06:09:55;;;;;;;10.73;9.75;;;;;;;26.77;58.30;99781.00;5052735;28;20279;-57
2022/07/03 06:12:21;;;;;;;13.27;10.82;;;;;;;26.77;58.34;99790.69;5052241;28;20543;-57
2022/07/03 06:14:48;;;;;;;11.32;10.23;;;;;;;26.88;57.66;99780.53;5051976;28;20451;-57
2022/07/03 06:17:15;;;;;;;10.80;9.98;;;;;;;26.97;57.53;99779.28;5052239;28;20563;-57
2022/07/03 06:19:42;;;;;;;11.85;10.70;;;;;;;27.13;57.52;99775.00;5052220;28;20200;-58
2022/07/03 06:22:09;;;;;;;11.10;10.20;;;;;;;27.27;56.69;99769.91;5052161;28;20192;-58
2022/07/03 06:24:37;;;;;;;11.20;10.20;;;;;;;27.31;56.17;99764.41;5052299;28;20192;-58
2022/07/03 06:27:05;;;;;;;10.43;9.60;;;;;;;27.36;56.00;99772.13;5051654;28;20192;-58
2022/07/03 06:29:32;;;;;;;11.35;10.35;;;;;;;27.42;55.95;99774.47;5052224;28;20526;-58
2022/07/03 06:31:59;;;;;;;11.20;10.00;;;;;;;27.47;56.53;99769.84;5052139;28;20207;-57
2022/07/03 06:34:26;;;;;;;11.40;10.32;;;;;;;27.60;55.84;99775.41;5051669;28;20224;-58
2022/07/03 06:36:53;;;;;;;11.20;10.25;;;;;;;27.61;54.83;99771.84;5051950;28;20199;-57
2022/07/03 06:39:20;;;;;;;10.73;9.93;;;;;;;27.45;55.48;99769.06;5051816;28;20564;-58
2022/07/03 06:41:48;;;;;;;11.60;10.23;;;;;;;27.57;55.09;99764.97;5052301;28;20188;-58
2022/07/03 06:44:15;;;;;;;11.88;10.68;;;;;;;27.59;54.04;99761.34;5051776;28;20203;-58
2022/07/03 06:46:42;;;;;;;10.63;9.63;;;;;;;27.56;54.71;99758.84;5051734;28;20359;-57
2022/07/03 06:49:09;;;;;;;11.07;9.45;;;;;;;27.70;54.58;99768.72;5051621;28;20192;-57
2022/07/03 06:51:36;;;;;;;11.27;10.18;;;;;;;27.62;53.86;99763.81;5051631;28;20198;-57
2022/07/03 06:54:02;;;;;;;13.35;10.40;;;;;;;27.62;53.66;99763.81;5051359;28;20196;-57
2022/07/03 06:56:29;;;;;;;11.13;10.07;;;;;;;27.66;53.17;99767.19;5051542;28;20188;-57
2022/07/03 06:58:58;;;;;;;12.45;10.32;;;;;;;27.74;53.42;99754.44;5051177;28;20701;-57
2022/07/03 07:01:25;;;;;;;11.68;10.48;;;;;;;27.92;53.54;99751.75;5051203;28;20203;-57
2022/07/03 07:03:52;;;;;;;12.73;11.55;;;;;;;28.07;53.57;99747.50;5050527;28;20779;-57
2022/07/03 07:06:18;;;;;;;11.75;10.55;;;;;;;28.21;53.33;99738.88;5051312;28;20191;-58
2022/07/03 07:08:45;;;;;;;16.98;10.95;;;;;;;28.19;52.84;99746.00;5050986;28;20667;-57
2022/07/03 07:11:12;;;;;;;12.02;10.82;;;;;;;28.14;52.08;99733.03;5051246;28;20691;-57
2022/07/03 07:13:39;;;;;;;11.60;10.63;;;;;;;28.25;52.35;99743.03;5050892;28;20202;-58
2022/07/03 07:16:07;;;;;;;12.02;11.02;;;;;;;28.29;52.48;99750.75;5051048;28;20220;-57
2022/07/03 07:18:35;;;;;;;11.00;9.90;;;;;;;28.38;52.84;99744.09;5050823;28;20200;-57
2022/07/03 07:21:01;;;;;;;11.35;10.15;;;;;;;28.45;53.34;99740.22;5051018;28;20279;-57
2022/07/03 07:23:28;;;;;;;11.97;10.77;;;;;;;28.55;52.75;99738.78;5049596;28;20485;-57
2022/07/03 07:25:55;;;;;;;11.90;10.40;;;;;;;28.63;52.41;99740.13;5050340;28;20188;-58
2022/07/03 07:28:22;;;;;;;11.68;10.52;;;;;;;28.46;51.24;99740.13;5050587;28;20203;-57
2022/07/03 07:30:49;;;;;;;10.88;9.80;;;;;;;28.39;51.66;99736.09;5050577;28;20214;-58
2022/07/03 07:33:17;;;;;;;10.93;9.88;;;;;;;28.35;51.90;99739.84;5050584;28;20196;-58
2022/07/03 07:35:44;;;;;;;11.70;10.57;;;;;;;28.53;51.90;99738.88;5050709;28;20220;-58
2022/07/03 07:38:11;;;;;;;11.88;10.77;;;;;;;28.68;51.60;99734.56;5049244;28;20451;-58
2022/07/03 07:40:37;;;;;;;11.13;10.20;;;;;;;28.71;50.04;99733.56;5050069;28;20214;-58
2022/07/03 07:43:04;;;;;;;11.35;10.35;;;;;;;28.79;50.39;99734.03;5050298;28;20575;-58
2022/07/03 07:45:31;;;;;;;10.27;9.48;;;;;;;28.95;50.53;99732.25;5050205;28;20227;-58
2022/07/03 07:47:58;;;;;;;11.13;10.13;;;;;;;29.04;49.52;99729.94;5050511;28;20303;-58
2022/07/03 07:50:26;;;;;;;10.80;9.88;;;;;;;29.15;49.83;99737.25;5050285;28;20642;-58
2022/07/03 07:52:53;;;;;;;10.35;9.07;;;;;;;29.21;49.48;99742.22;5049484;28;20200;-58
2022/07/03 07:55:21;;;;;;;10.90;9.93;;;;;;;29.16;48.78;99738.97;5049963;28;20227;-58
2022/07/03 07:57:48;;;;;;;10.20;9.20;;;;;;;29.14;48.78;99736.44;5048670;28;20451;-57
2022/07/03 08:00:18;;;;;;;9.95;9.10;;;;;;;29.39;48.66;99738.59;5049740;28;20438;-57
2022/07/03 08:05:38;;;;;;;11.98;10.18;;;;;;;29.45;48.25;99745.28;5049418;28;20306;-58
2022/07/03 08:08:09;;;;;;;12.00;9.82;;;;;;;29.42;47.61;99732.25;5049755;28;20263;-57
2022/07/03 08:10:38;;;;;;;9.88;9.10;;;;;;;29.52;47.55;99739.59;5049934;28;20199;-57
2022/07/03 08:13:05;;;;;;;9.70;8.90;;;;;;;29.63;48.08;99731.03;5049940;28;20204;-58
2022/07/03 08:15:32;;;;;;;10.13;8.95;;;;;;;29.69;48.17;99730.66;5049674;28;20610;-58
2022/07/03 08:17:59;;;;;;;9.32;8.23;;;;;;;29.80;46.49;99736.22;5050965;28;20203;-58
2022/07/03 08:20:27;;;;;;;9.60;8.70;;;;;;;29.86;45.63;99742.97;5054666;28;20227;-58
2022/07/03 08:22:55;;;;;;;10.60;9.50;;;;;;;29.80;45.68;99723.81;5066514;28;20591;-58
2022/07/03 08:25:22;;;;;;;9.40;8.38;;;;;;;29.91;44.05;99741.75;5051953;28;20825;-58
2022/07/03 08:27:49;;;;;;;8.07;7.38;;;;;;;29.94;42.05;99736.28;5055337;28;20203;-58
2022/07/03 08:30:18;;;;;;;7.65;7.03;;;;;;;30.02;43.05;99730.50;5051877;28;20623;-57
2022/07/03 08:32:45;;;;;;;9.07;7.45;;;;;;;30.14;43.13;99735.06;5049869;28;20574;-57
2022/07/03 08:35:12;;;;;;;10.18;9.20;;;;;;;30.24;42.22;99734.41;5051993;28;20208;-56
2022/07/03 08:37:40;;;;;;;9.38;8.48;;;;;;;30.24;43.00;99739.72;5066919;28;20187;-56
2022/07/03 08:40:10;;;;;;;8.98;8.10;;;;;;;30.38;42.96;99744.25;5064522;28;20543;-57
2022/07/03 08:42:39;;;;;;;10.00;9.02;;;;;;;30.55;42.99;99740.53;5067847;28;20199;-57
2022/07/03 08:45:08;;;;;;;9.43;8.52;;;;;;;30.35;42.55;99736.44;5068986;28;20306;-56
2022/07/03 08:47:38;;;;;;;12.40;8.65;;;;;;;30.37;42.79;99743.38;5069690;28;20199;-57
2022/07/03 08:50:06;;;;;;;8.70;8.07;;;;;;;30.35;42.40;99729.31;5066840;28;20635;-57
2022/07/03 08:52:34;;;;;;;8.40;7.80;;;;;;;30.35;42.20;99733.78;5064955;28;20525;-56
2022/07/03 08:55:02;;;;;;;8.75;7.93;;;;;;;30.39;40.94;99737.97;5069047;28;20469;-56
2022/07/03 08:57:32;;;;;;;9.13;8.32;;;;;;;30.46;40.66;99735.81;5069170;28;20535;-57
2022/07/03 09:00:03;;;;;;;8.37;7.57;;;;;;;30.63;40.00;99728.50;5068975;28;20438;-57
2022/07/03 09:02:31;;;;;;;8.98;7.40;;;;;;;30.80;39.75;99728.31;5067137;28;20200;-58
2022/07/03 09:04:58;;;;;;;7.38;6.68;;;;;;;31.02;38.41;99732.28;5065656;28;20196;-57
2022/07/03 09:07:27;;;;;;;6.88;6.28;;;;;;;31.00;35.28;99740.34;5069990;28;20213;-57
2022/07/03 09:09:55;;;;;;;6.60;6.13;;;;;;;31.21;34.70;99732.78;5069548;28;20638;-56
2022/07/03 09:12:22;;;;;;;7.60;5.93;;;;;;;31.28;34.49;99729.66;5069575;28;20213;-57
2022/07/03 09:14:51;;;;;;;7.72;5.93;;;;;;;31.41;35.04;99724.41;5069246;28;20484;-57
2022/07/03 09:17:18;;;;;;;6.63;5.95;;;;;;;31.43;33.39;99731.31;5069265;28;20202;-57
2022/07/03 09:19:47;;;;;;;6.32;5.78;;;;;;;31.46;33.82;99727.59;5069310;28;20282;-57
2022/07/03 09:22:22;;;;;;;6.28;5.65;;;;;;;31.59;34.44;99725.03;5069554;28;20750;-57
2022/07/03 09:24:49;;;;;;;6.13;5.72;;;;;;;31.75;34.69;99729.22;5063723;28;20203;-57
2022/07/03 09:27:21;;;;;;;9.15;6.15;;;;;;;31.81;34.45;99723.47;5052441;28;21030;-57
2022/07/03 09:30:11;;;;;;;7.40;6.60;;;;;;;31.81;34.74;99715.50;5049136;28;20207;-57
2022/07/03 09:32:45;;;;;;;7.47;6.78;;;;;;;31.93;35.00;99711.16;5060178;28;20196;-56
2022/07/03 09:35:19;;;;;;;8.07;6.90;;;;;;;32.05;35.12;99713.91;5069363;28;20226;-56
2022/07/03 09:37:52;;;;;;;8.38;6.55;;;;;;;31.83;35.02;99710.09;5069580;28;20195;-57
2022/07/03 09:40:20;;;;;;;7.93;7.28;;;;;;;31.74;35.77;99708.06;5069392;28;20658;-56
2022/07/03 09:43:01;;;;;;;7.40;6.70;;;;;;;31.89;34.85;99705.19;5068520;28;20909;-58
2022/07/03 09:45:49;;;;;;;7.70;7.00;;;;;;;32.10;34.41;99708.25;5068928;28;20442;-58
2022/07/03 09:48:26;;;;;;;8.15;6.55;;;;;;;32.23;34.35;99698.47;5065259;28;20195;-58
2022/07/03 09:51:13;;;;;;;7.28;6.70;;;;;;;32.29;35.26;99694.53;5062513;28;20262;-56
2022/07/03 09:53:51;;;;;;;7.95;6.70;;;;;;;32.36;34.65;99695.81;5069286;28;20202;-56
2022/07/03 09:56:19;;;;;;;7.13;6.32;;;;;;;32.25;34.14;99671.78;5068211;28;20460;-57
2022/07/03 09:59:16;;;;;;;7.50;6.78;;;;;;;32.63;33.85;99693.91;5069282;28;20178;-57
2022/07/03 10:01:46;;;;;;;7.97;6.93;;;;;;;32.73;33.80;99694.94;5004734;28;20743;-57
2022/07/03 10:04:15;;;;;;;9.93;6.93;;;;;;;32.76;34.08;99686.72;5053895;28;20255;-57
2022/07/03 10:06:49;;;;;;;24.23;7.80;;;;;;;32.76;33.98;99678.75;5069538;28;20211;-57
2022/07/03 10:09:19;;;;;;;6.32;5.45;;;;;;;32.75;33.42;99684.16;5071566;28;20187;-57
2022/07/03 10:11:46;;;;;;;6.45;5.93;;;;;;;32.76;33.93;99669.91;5074181;28;20264;-57
2022/07/03 10:14:15;;;;;;;7.70;6.60;;;;;;;32.84;34.17;99676.38;5072660;28;20199;-57
2022/07/03 10:16:44;;;;;;;8.07;6.60;;;;;;;32.79;33.99;99683.00;5071799;28;20211;-57
2022/07/03 10:19:15;;;;;;;6.28;5.72;;;;;;;32.80;34.13;99672.22;5072033;28;20194;-57
2022/07/03 10:21:44;;;;;;;8.38;5.97;;;;;;;32.93;34.36;99674.88;5071988;28;20195;-57
2022/07/03 10:24:13;;;;;;;7.18;6.68;;;;;;;32.95;33.81;99652.50;5072198;28;20279;-56
2022/07/03 10:26:41;;;;;;;7.10;6.43;;;;;;;32.99;33.80;99656.59;5072212;28;20249;-56
2022/07/03 10:29:15;;;;;;;6.85;6.20;;;;;;;33.14;33.73;99666.19;5071910;28;20223;-56
2022/07/03 10:31:45;;;;;;;9.68;7.45;;;;;;;33.25;34.42;99665.38;5067278;28;20278;-57
2022/07/03 10:34:26;;;;;;;6.85;6.15;;;;;;;33.30;33.01;99673.88;5068518;28;20276;-57
2022/07/03 10:36:55;;;;;;;9.55;8.57;;;;;;;33.41;34.24;99671.28;5069824;28;20287;-66
2022/07/03 10:39:34;;;;;;;7.05;6.20;;;;;;;33.50;33.11;99667.06;5071069;28;21210;-66
2022/07/03 10:44:51;;;;;;;7.07;6.35;;;;;;;33.26;34.21;99656.44;5068446;28;20315;-67
2022/07/03 10:47:38;;;;;;;8.85;7.97;;;;;;;33.39;33.63;99665.22;5070444;28;20192;-67
2022/07/03 10:50:09;;;;;;;9.70;7.20;;;;;;;33.49;32.93;99663.53;5070772;28;20196;-67
2022/07/03 10:52:36;;;;;;;8.40;6.50;;;;;;;33.62;33.44;99656.34;5072495;28;20253;-65
2022/07/03 10:55:06;;;;;;;7.00;6.40;;;;;;;33.54;32.60;99660.56;5069787;28;20378;-66
2022/07/03 10:57:33;;;;;;;7.65;6.95;;;;;;;33.60;32.59;99662.75;5069206;28;20215;-66
2022/07/03 11:00:13;;;;;;;6.85;6.35;;;;;;;33.51;32.97;99656.31;5071375;28;20214;-66
2022/07/03 11:02:44;;;;;;;7.63;6.78;;;;;;;33.59;32.65;99642.44;5058359;28;20200;-66
2022/07/03 11:05:19;;;;;;;9.48;7.10;;;;;;;33.57;33.50;99637.19;5058393;28;20196;-66
2022/07/03 11:08:09;;;;;;;7.05;6.45;;;;;;;33.74;33.85;99643.91;5071068;28;20191;-66
2022/07/03 11:10:43;;;;;;;7.57;6.97;;;;;;;33.84;33.58;99632.41;5071456;28;20276;-67
2022/07/03 11:13:20;;;;;;;7.20;6.60;;;;;;;33.98;33.59;99623.34;5062540;28;20202;-66
2022/07/03 11:15:50;;;;;;;14.35;8.15;;;;;;;34.02;32.94;99623.97;5066518;28;20223;-66
2022/07/03 11:18:26;;;;;;;8.75;6.63;;;;;;;34.14;33.83;99623.03;5070952;28;20192;-66
2022/07/03 11:21:29;;;;;;;8.23;7.53;;;;;;;34.23;32.42;99625.81;5070445;28;20434;-67
2022/07/03 11:24:32;;;;;;;7.50;6.80;;;;;;;34.34;32.60;99625.81;5071065;28;20211;-67
2022/07/03 11:27:19;;;;;;;9.07;8.18;;;;;;;34.28;31.99;99623.63;5060981;28;20657;-69
2022/07/03 11:29:50;;;;;;;8.68;7.65;;;;;;;34.07;32.43;99558.66;5066949;28;20204;-67
2022/07/03 11:32:46;;;;;;;8.73;7.90;;;;;;;34.34;33.22;99609.81;5061714;28;20196;-67
2022/07/03 11:35:46;;;;;;;12.43;7.38;;;;;;;34.35;32.59;99603.50;5057916;28;20195;-67
2022/07/03 11:38:16;;;;;;;8.63;7.82;;;;;;;34.39;33.35;99607.63;5070817;28;20191;-67
2022/07/03 11:40:44;;;;;;;8.18;7.40;;;;;;;34.40;32.58;99609.31;5070457;28;20465;-67
2022/07/03 11:43:11;;;;;;;8.52;7.53;;;;;;;34.45;32.24;99592.09;5070842;28;20211;-67
2022/07/03 11:45:39;;;;;;;8.60;7.65;;;;;;;34.55;32.09;99596.56;5070504;28;20231;-67